Time;durP1;ratioP1;P1;durP2;ratioP2;P2;SDS_P1;SDS_P2;PMS_P1;PMS_P2;Temp;Humidity;BMP_temperature;BMP_pressure;BME280_temperature;BME280_humidity;BME280_pressure;Samples;Min_cycle;Max_cycle;Signal;HPM_P1;HPM_P2
2024/02/04 00:02:03;;;;;;;0.30;0.20;;;;;;;11.68;92.63;101253.59;5073990;28;20508;-50
2024/02/04 00:04:32;;;;;;;0.30;0.20;;;;;;;11.65;92.27;101242.97;5074273;28;20880;-50
2024/02/04 00:06:59;;;;;;;0.30;0.20;;;;;;;11.56;92.81;101247.56;5074092;28;20420;-50
2024/02/04 00:09:28;;;;;;;0.30;0.20;;;;;;;11.66;92.66;101242.97;5074191;28;20820;-50
2024/02/04 00:11:55;;;;;;;0.30;0.20;;;;;;;11.70;92.54;101235.78;5055918;28;20480;-50
2024/02/04 00:14:21;;;;;;;0.30;0.20;;;;;;;11.70;92.18;101241.09;5061272;28;20966;-50
2024/02/04 00:16:47;;;;;;;0.30;0.20;;;;;;;11.62;92.96;101243.91;5073937;28;20532;-50
2024/02/04 00:19:14;;;;;;;0.30;0.20;;;;;;;11.58;93.57;101236.88;5074005;28;20449;-50
2024/02/04 00:21:41;;;;;;;0.30;0.20;;;;;;;11.50;94.24;101247.63;5073292;28;20493;-50
2024/02/04 00:24:07;;;;;;;0.30;0.20;;;;;;;11.41;94.47;101234.50;5071877;28;20523;-50
2024/02/04 00:26:34;;;;;;;0.30;0.20;;;;;;;11.40;94.50;101230.09;5073407;28;20469;-50
2024/02/04 00:29:00;;;;;;;0.30;0.20;;;;;;;11.35;94.88;101234.59;5073707;28;20574;-51
2024/02/04 00:31:26;;;;;;;0.30;0.20;;;;;;;11.35;94.05;101221.28;5047370;28;20484;-49
2024/02/04 00:33:53;;;;;;;0.30;0.20;;;;;;;11.29;94.75;101216.06;5073700;28;20460;-50
2024/02/04 00:36:21;;;;;;;0.30;0.20;;;;;;;11.46;94.71;101205.13;5073610;28;20443;-49
2024/02/04 00:38:48;;;;;;;0.30;0.20;;;;;;;11.44;94.32;101221.13;5056749;28;20421;-50
2024/02/04 00:41:14;;;;;;;0.30;0.20;;;;;;;11.51;94.05;101216.56;5073094;28;20489;-50
2024/02/04 00:43:41;;;;;;;0.30;0.20;;;;;;;11.55;93.44;101220.97;5072871;28;20461;-50
2024/02/04 00:46:10;;;;;;;0.30;0.20;;;;;;;11.52;93.90;101213.91;5060810;28;20450;-50
2024/02/04 00:48:37;;;;;;;0.30;0.20;;;;;;;11.54;93.67;101211.22;5073229;28;20485;-50
2024/02/04 00:51:04;;;;;;;0.30;0.20;;;;;;;11.48;94.25;101214.84;5073373;28;20449;-50
2024/02/04 00:53:33;;;;;;;0.30;0.20;;;;;;;11.53;94.04;101214.78;5073165;28;20446;-50
2024/02/04 00:56:04;;;;;;;0.30;0.20;;;;;;;11.52;94.38;101205.03;5064372;28;20421;-50
2024/02/04 00:58:31;;;;;;;0.30;0.20;;;;;;;11.52;93.60;101207.72;5070719;28;20805;-50
2024/02/04 01:00:57;;;;;;;0.30;0.20;;;;;;;11.46;94.04;101203.34;5062772;28;20429;-50
2024/02/04 01:03:24;;;;;;;0.30;0.20;;;;;;;11.48;94.19;101209.53;5059747;28;20863;-50
2024/02/04 01:05:50;;;;;;;0.30;0.20;;;;;;;11.47;93.96;101214.88;5073067;28;20450;-50
2024/02/04 01:08:17;;;;;;;0.30;0.20;;;;;;;11.49;93.73;101208.63;5059183;28;20472;-50
2024/02/04 01:10:44;;;;;;;0.30;0.20;;;;;;;11.57;93.82;101214.69;5073102;28;20449;-50
2024/02/04 01:13:10;;;;;;;0.30;0.20;;;;;;;11.44;93.85;101214.94;5073026;28;20596;-50
2024/02/04 01:15:37;;;;;;;0.30;0.20;;;;;;;11.48;93.93;101219.28;5073036;28;20446;-50
2024/02/04 01:18:03;;;;;;;0.30;0.20;;;;;;;11.40;94.36;101219.44;5072713;28;20429;-50
2024/02/04 01:20:30;;;;;;;0.30;0.20;;;;;;;11.36;94.74;101220.38;5072798;28;20477;-50
2024/02/04 01:22:56;;;;;;;0.30;0.20;;;;;;;11.27;95.68;101225.88;5072472;28;20474;-50
2024/02/04 01:25:23;;;;;;;0.30;0.20;;;;;;;11.35;94.84;101226.59;5070888;28;20424;-50
2024/02/04 01:27:49;;;;;;;0.30;0.20;;;;;;;11.36;95.37;101212.38;5072227;28;20973;-50
2024/02/04 01:30:16;;;;;;;0.30;0.20;;;;;;;11.46;94.39;101221.97;5072495;28;20955;-50
2024/02/04 01:32:42;;;;;;;0.30;0.20;;;;;;;11.37;94.89;101208.81;5071462;28;20466;-50
2024/02/04 01:35:09;;;;;;;0.30;0.20;;;;;;;11.43;95.12;101219.38;5072452;28;20446;-50
2024/02/04 01:37:35;;;;;;;0.30;0.20;;;;;;;11.47;94.76;101223.75;5054341;28;20450;-50
2024/02/04 01:40:02;;;;;;;0.30;0.20;;;;;;;11.35;94.81;101215.97;5062957;28;20801;-50
2024/02/04 01:42:28;;;;;;;0.30;0.20;;;;;;;11.45;94.92;101217.56;5054701;28;20453;-50
2024/02/04 01:44:55;;;;;;;0.30;0.20;;;;;;;11.28;95.32;101217.84;5072281;28;20507;-50
2024/02/04 01:47:22;;;;;;;0.30;0.20;;;;;;;11.23;96.16;101211.72;5037052;28;20505;-50
2024/02/04 01:49:49;;;;;;;0.30;0.20;;;;;;;11.29;96.22;101221.41;5063187;28;20820;-50
2024/02/04 01:52:17;;;;;;;0.30;0.20;;;;;;;11.30;96.50;101217.84;5071714;28;20822;-50
2024/02/04 01:54:44;;;;;;;0.30;0.20;;;;;;;11.32;95.54;101225.78;5067685;28;20449;-50
2024/02/04 01:57:12;;;;;;;0.30;0.20;;;;;;;11.35;95.85;101233.72;5071921;28;20451;-50
2024/02/04 01:59:39;;;;;;;0.30;0.20;;;;;;;11.33;95.94;101239.06;5054329;28;20954;-50
2024/02/04 02:02:06;;;;;;;0.30;0.20;;;;;;;11.25;96.31;101241.00;5035911;28;20482;-50
2024/02/04 02:04:32;;;;;;;0.30;0.20;;;;;;;11.33;96.50;101235.53;5063653;28;20454;-50
2024/02/04 02:07:00;;;;;;;0.30;0.20;;;;;;;11.20;96.24;101234.84;5072012;28;20512;-50
2024/02/04 02:09:29;;;;;;;0.30;0.20;;;;;;;11.17;97.13;101227.78;5059939;28;20498;-50
2024/02/04 02:12:10;;;;;;;0.30;0.20;;;;;;;11.11;97.24;101216.38;5070884;28;20492;-50
2024/02/04 02:14:42;;;;;;;0.30;0.20;;;;;;;11.25;97.08;101209.06;5071860;28;20431;-50
2024/02/04 02:17:18;;;;;;;0.30;0.20;;;;;;;11.24;97.43;101204.63;5071802;28;20503;-50
2024/02/04 02:19:54;;;;;;;0.30;0.20;;;;;;;11.11;97.12;101205.75;5068796;28;20474;-50
2024/02/04 02:22:37;;;;;;;0.30;0.20;;;;;;;11.24;97.35;101204.63;5063060;28;20461;-50
2024/02/04 02:25:07;;;;;;;0.30;0.20;;;;;;;11.20;97.11;101217.09;5048329;28;20529;-50
2024/02/04 02:27:34;;;;;;;0.30;0.20;;;;;;;11.16;97.43;101206.53;5071200;28;20445;-50
2024/02/04 02:30:00;;;;;;;0.30;0.20;;;;;;;11.30;97.57;101204.53;5064167;28;20450;-50
2024/02/04 02:32:27;;;;;;;0.30;0.20;;;;;;;11.24;97.74;101197.53;5065627;28;20552;-51
2024/02/04 02:34:53;;;;;;;0.30;0.20;;;;;;;11.24;98.14;101201.97;5071700;28;20450;-49
2024/02/04 02:37:26;;;;;;;0.30;0.20;;;;;;;11.15;98.72;101202.13;5066823;28;20451;-50
2024/02/04 02:40:01;;;;;;;0.30;0.20;;;;;;;11.04;100.00;101204.94;5060444;28;20441;-51
2024/02/04 02:42:29;;;;;;;0.30;0.20;;;;;;;11.02;100.00;101200.56;5057590;28;21002;-50
2024/02/04 02:44:56;;;;;;;0.30;0.20;;;;;;;11.18;100.00;101191.41;5071509;28;20453;-50
2024/02/04 02:47:24;;;;;;;0.30;0.20;;;;;;;11.02;100.00;101200.56;5053362;28;20874;-51
2024/02/04 02:49:53;;;;;;;0.30;0.20;;;;;;;10.95;100.00;101194.44;5071385;28;20521;-51
2024/02/04 02:52:21;;;;;;;0.30;0.20;;;;;;;11.02;100.00;101200.56;5071164;23;20501;-50
2024/02/04 02:54:48;;;;;;;0.30;0.20;;;;;;;11.07;100.00;101191.59;5064041;28;20482;-50
2024/02/04 02:57:14;;;;;;;0.30;0.20;;;;;;;11.16;100.00;101187.91;5069945;28;20480;-50
2024/02/04 02:59:41;;;;;;;0.30;0.20;;;;;;;11.13;99.98;101177.31;5071557;28;20485;-50
2024/02/04 03:02:07;;;;;;;0.30;0.20;;;;;;;11.18;100.00;101179.00;5071362;28;20469;-50
2024/02/04 03:04:34;;;;;;;0.30;0.20;;;;;;;11.17;99.80;101169.25;5071380;28;20423;-50
2024/02/04 03:07:01;;;;;;;0.30;0.20;;;;;;;11.03;100.00;101163.28;5071134;28;20973;-50
2024/02/04 03:09:27;;;;;;;0.30;0.20;;;;;;;11.17;99.98;101155.94;5071480;28;20901;-50
2024/02/04 03:11:54;;;;;;;0.30;0.20;;;;;;;11.03;99.69;101160.63;5071152;28;20586;-50
2024/02/04 03:14:20;;;;;;;0.30;0.20;;;;;;;11.06;99.56;101160.56;5071340;28;20449;-50
2024/02/04 03:16:46;;;;;;;0.30;0.20;;;;;;;11.10;99.88;101162.28;5071177;28;20446;-50
2024/02/04 03:19:13;;;;;;;0.30;0.20;;;;;;;11.08;99.91;101160.53;5071297;28;20446;-50
2024/02/04 03:21:39;;;;;;;0.30;0.20;;;;;;;11.09;99.73;101165.81;5070816;28;20458;-51
2024/02/04 03:24:06;;;;;;;0.30;0.20;;;;;;;11.04;100.00;101158.84;5069650;28;20461;-50
2024/02/04 03:26:32;;;;;;;0.30;0.20;;;;;;;10.96;100.00;101156.28;5070678;28;20480;-50
2024/02/04 03:28:59;;;;;;;0.30;0.20;;;;;;;11.05;99.59;101165.91;5071150;28;20466;-50
2024/02/04 03:31:25;;;;;;;0.30;0.20;;;;;;;11.10;99.54;101164.03;5070733;28;20972;-51
2024/02/04 03:33:52;;;;;;;0.40;0.37;;;;;;;11.09;99.56;101160.50;5071043;28;20452;-50
2024/02/04 03:36:23;;;;;;;0.30;0.20;;;;;;;11.19;99.52;101166.56;5070873;28;20820;-50
2024/02/04 03:38:52;;;;;;;0.30;0.20;;;;;;;11.06;98.92;101157.91;5058256;28;20890;-50
2024/02/04 03:41:18;;;;;;;0.30;0.20;;;;;;;11.01;99.38;101161.56;5071045;28;20533;-50
2024/02/04 03:43:46;;;;;;;0.30;0.20;;;;;;;11.04;99.81;101158.84;5070718;28;20473;-50
2024/02/04 03:46:14;;;;;;;0.30;0.20;;;;;;;11.02;99.80;101158.88;5071080;28;20446;-51
2024/02/04 03:48:41;;;;;;;0.30;0.20;;;;;;;10.98;99.50;101151.84;5070651;28;20517;-50
2024/02/04 03:51:07;;;;;;;0.30;0.20;;;;;;;11.03;100.00;101151.75;5071178;28;20496;-51
2024/02/04 03:53:34;;;;;;;0.30;0.20;;;;;;;10.97;99.94;101161.63;5070548;28;20477;-51
2024/02/04 03:56:00;;;;;;;0.30;0.20;;;;;;;10.92;99.90;101160.78;5063657;28;20550;-50
2024/02/04 03:58:29;;;;;;;0.30;0.20;;;;;;;11.07;99.84;101154.34;5074372;28;20532;-50
2024/02/04 04:00:56;;;;;;;0.30;0.20;;;;;;;11.00;99.98;101158.03;5074580;28;20450;-50
2024/02/04 04:03:23;;;;;;;0.30;0.20;;;;;;;10.95;99.50;101162.50;5074055;28;20461;-50
2024/02/04 04:05:50;;;;;;;0.30;0.20;;;;;;;10.84;100.00;101172.47;5074578;28;20450;-50
2024/02/04 04:08:18;;;;;;;0.30;0.20;;;;;;;10.86;100.00;101162.69;5073981;28;21021;-51
2024/02/04 04:10:45;;;;;;;0.30;0.20;;;;;;;10.90;100.00;101156.41;5074268;28;20521;-50
2024/02/04 04:13:12;;;;;;;0.30;0.20;;;;;;;10.92;100.00;101152.81;5073936;28;20493;-50
2024/02/04 04:15:39;;;;;;;0.30;0.20;;;;;;;10.85;99.54;101163.59;5074089;28;20450;-50
2024/02/04 04:18:06;;;;;;;0.30;0.20;;;;;;;10.88;99.73;101158.22;5073873;28;20868;-50
2024/02/04 04:20:32;;;;;;;0.30;0.20;;;;;;;10.99;99.80;101169.56;5074156;28;20446;-50
2024/02/04 04:22:59;;;;;;;0.30;0.20;;;;;;;10.98;99.39;101159.84;5073961;28;20498;-50
2024/02/04 04:25:25;;;;;;;0.30;0.20;;;;;;;10.82;100.00;101167.16;5071927;28;20496;-51
2024/02/04 04:27:52;;;;;;;0.30;0.20;;;;;;;10.93;100.00;101167.88;5073781;28;20458;-51
2024/02/04 04:30:18;;;;;;;0.30;0.20;;;;;;;10.96;99.72;101173.16;5073835;28;20438;-50
2024/02/04 04:32:45;;;;;;;0.30;0.20;;;;;;;10.94;99.64;101166.09;5060252;28;20906;-51
2024/02/04 04:35:11;;;;;;;0.30;0.20;;;;;;;10.83;99.83;101168.94;5073712;28;20848;-51
2024/02/04 04:37:38;;;;;;;0.30;0.20;;;;;;;10.86;100.00;101163.56;5070278;28;20984;-51
2024/02/04 04:40:05;;;;;;;0.30;0.20;;;;;;;10.97;99.94;101168.72;5073797;28;20438;-51
2024/02/04 04:42:32;;;;;;;0.30;0.20;;;;;;;10.91;99.91;101167.00;5073673;28;20962;-51
2024/02/04 04:44:58;;;;;;;0.30;0.20;;;;;;;10.89;100.00;101175.94;5073484;28;20801;-51
2024/02/04 04:47:25;;;;;;;0.30;0.20;;;;;;;11.09;99.59;101167.63;5073484;28;21018;-51
2024/02/04 04:49:51;;;;;;;0.30;0.20;;;;;;;10.96;99.80;101173.16;5075089;28;20470;-49
2024/02/04 04:52:18;;;;;;;0.30;0.20;;;;;;;10.97;99.68;101172.25;5073304;28;20492;-50
2024/02/04 04:54:44;;;;;;;0.30;0.20;;;;;;;10.94;99.90;101171.41;5066558;28;20447;-49
2024/02/04 04:57:11;;;;;;;0.30;0.20;;;;;;;10.94;99.78;101166.09;5071278;28;20457;-49
2024/02/04 04:59:38;;;;;;;0.30;0.20;;;;;;;10.93;99.68;101154.56;5073385;28;20474;-49
2024/02/04 05:02:04;;;;;;;0.30;0.20;;;;;;;10.85;100.00;101145.84;5073265;28;20498;-50
2024/02/04 05:04:31;;;;;;;0.30;0.20;;;;;;;10.91;100.00;101143.06;5073250;28;20545;-49
2024/02/04 05:06:57;;;;;;;0.30;0.20;;;;;;;11.00;99.92;101160.69;5071888;28;20995;-50
2024/02/04 05:09:24;;;;;;;0.30;0.20;;;;;;;11.06;99.56;101165.88;5073151;28;20482;-50
2024/02/04 05:11:50;;;;;;;0.30;0.20;;;;;;;11.02;99.36;101168.63;5073109;28;20565;-49
2024/02/04 05:14:17;;;;;;;0.30;0.20;;;;;;;11.00;99.57;101170.44;5073004;28;20452;-49
2024/02/04 05:16:45;;;;;;;0.30;0.20;;;;;;;11.03;99.96;101175.72;5072851;28;20450;-50
2024/02/04 05:19:12;;;;;;;0.30;0.20;;;;;;;11.08;99.31;101165.84;5073062;28;20958;-50
2024/02/04 05:21:40;;;;;;;0.30;0.20;;;;;;;11.10;99.37;101170.28;5072813;28;20524;-49
2024/02/04 05:24:06;;;;;;;0.30;0.20;;;;;;;11.10;99.59;101172.03;5071128;28;20985;-50
2024/02/04 05:26:33;;;;;;;0.30;0.20;;;;;;;11.07;99.21;101164.09;5071305;28;20424;-50
2024/02/04 05:28:59;;;;;;;0.30;0.20;;;;;;;11.16;99.27;101167.50;5072796;28;20492;-51
2024/02/04 05:31:26;;;;;;;0.30;0.20;;;;;;;11.13;98.99;101164.91;5072821;28;20446;-51
2024/02/04 05:33:53;;;;;;;0.30;0.20;;;;;;;11.10;99.51;101170.28;5072790;28;20456;-51
2024/02/04 05:36:19;;;;;;;0.30;0.20;;;;;;;10.96;99.35;101173.16;5072672;28;20457;-51
2024/02/04 05:38:46;;;;;;;0.30;0.20;;;;;;;11.01;99.79;101174.84;5060048;28;20454;-51
2024/02/04 05:41:12;;;;;;;0.30;0.20;;;;;;;11.03;99.86;101176.59;5059259;28;21061;-51
2024/02/04 05:43:39;;;;;;;0.30;0.20;;;;;;;11.14;99.07;101179.06;5072430;28;20476;-50
2024/02/04 05:46:05;;;;;;;0.30;0.20;;;;;;;11.05;99.27;101174.78;5072653;28;21060;-51
2024/02/04 05:48:32;;;;;;;0.30;0.20;;;;;;;11.09;99.21;101183.56;5073087;28;20888;-51
2024/02/04 05:51:00;;;;;;;0.30;0.20;;;;;;;11.08;99.69;101181.81;5073090;28;20463;-50
2024/02/04 05:53:26;;;;;;;0.30;0.20;;;;;;;11.03;99.81;101183.69;5072732;28;20547;-51
2024/02/04 05:55:53;;;;;;;0.30;0.20;;;;;;;11.05;99.43;101181.88;5053682;28;20451;-51
2024/02/04 05:58:19;;;;;;;0.30;0.20;;;;;;;11.06;99.05;101175.66;5066789;28;20449;-51
2024/02/04 06:00:45;;;;;;;0.30;0.20;;;;;;;11.03;99.36;101176.59;5068546;28;20542;-50
2024/02/04 06:03:12;;;;;;;0.30;0.20;;;;;;;11.09;99.42;101180.91;5066683;28;20477;-50
2024/02/04 06:05:39;;;;;;;0.30;0.20;;;;;;;11.02;99.51;101171.28;5072452;28;20963;-50
2024/02/04 06:08:05;;;;;;;0.30;0.20;;;;;;;11.06;99.80;101173.00;5072192;28;20445;-50
2024/02/04 06:10:32;;;;;;;0.30;0.20;;;;;;;11.03;99.94;101181.91;5072230;28;20966;-50
2024/02/04 06:12:58;;;;;;;0.30;0.20;;;;;;;11.13;99.45;101177.31;5069158;28;20467;-50
2024/02/04 06:15:25;;;;;;;0.30;0.20;;;;;;;11.05;99.89;101171.25;5072283;28;20796;-50
2024/02/04 06:17:51;;;;;;;0.30;0.20;;;;;;;10.85;100.00;101168.91;5071752;28;20449;-52
2024/02/04 06:20:18;;;;;;;0.30;0.20;;;;;;;10.90;100.00;101172.38;5054177;28;20514;-52
2024/02/04 06:22:44;;;;;;;0.30;0.20;;;;;;;11.00;100.00;101170.44;5053985;28;20552;-52
2024/02/04 06:25:11;;;;;;;0.30;0.20;;;;;;;10.97;100.00;101161.63;5069907;28;21078;-52
2024/02/04 06:27:37;;;;;;;0.30;0.20;;;;;;;10.94;100.00;101160.75;5071705;28;20425;-51
2024/02/04 06:30:05;;;;;;;0.30;0.20;;;;;;;10.83;100.00;101160.06;5071993;28;20524;-52
2024/02/04 06:32:35;;;;;;;0.30;0.20;;;;;;;10.85;100.00;101158.25;5071751;28;20560;-50
2024/02/04 06:35:02;;;;;;;0.30;0.20;;;;;;;10.94;100.00;101148.34;5071807;28;20792;-50
2024/02/04 06:37:29;;;;;;;0.30;0.20;;;;;;;10.82;100.00;101158.28;5068234;28;20544;-50
2024/02/04 06:39:55;;;;;;;0.30;0.20;;;;;;;10.82;100.00;101152.97;5071818;28;20420;-50
2024/02/04 06:42:22;;;;;;;0.30;0.20;;;;;;;10.96;100.00;101149.22;5071595;28;20506;-50
2024/02/04 06:44:48;;;;;;;0.30;0.20;;;;;;;10.86;100.00;101150.25;5072019;28;20956;-50
2024/02/04 06:47:14;;;;;;;0.30;0.20;;;;;;;10.85;100.00;101156.47;5071617;28;20515;-51
2024/02/04 06:49:45;;;;;;;0.30;0.20;;;;;;;10.82;100.00;101163.59;5065807;28;20527;-51
2024/02/04 06:52:13;;;;;;;0.30;0.20;;;;;;;10.87;100.00;101161.78;5068474;28;20520;-52
2024/02/04 06:54:39;;;;;;;0.30;0.20;;;;;;;10.77;100.00;101154.84;5065396;28;20476;-51
2024/02/04 06:57:06;;;;;;;0.30;0.20;;;;;;;10.81;100.00;101154.75;5068986;28;20536;-50
2024/02/04 06:59:32;;;;;;;0.30;0.20;;;;;;;10.84;100.00;101167.16;5071754;28;20442;-52
2024/02/04 07:01:59;;;;;;;0.30;0.20;;;;;;;10.96;100.00;101157.19;5053510;28;20824;-52
2024/02/04 07:04:26;;;;;;;0.30;0.20;;;;;;;10.98;100.00;101166.03;5071538;28;20449;-51
2024/02/04 07:06:53;;;;;;;0.30;0.20;;;;;;;10.77;100.00;101162.81;5071388;28;20996;-51
2024/02/04 07:09:19;;;;;;;0.30;0.20;;;;;;;10.75;100.00;101168.16;5071888;28;20585;-51
2024/02/04 07:11:46;;;;;;;0.30;0.20;;;;;;;10.83;100.00;101176.03;5071565;28;20480;-52
2024/02/04 07:14:13;;;;;;;0.30;0.20;;;;;;;10.87;100.00;101165.31;5067502;28;20478;-51
2024/02/04 07:16:39;;;;;;;0.30;0.20;;;;;;;10.82;100.00;101161.81;5071610;28;20453;-51
2024/02/04 07:19:06;;;;;;;3.80;2.73;;;;;;;10.83;100.00;101168.06;5071455;28;20548;-51
2024/02/04 07:21:32;;;;;;;0.30;0.20;;;;;;;10.84;100.00;101160.06;5071604;28;20871;-52
2024/02/04 07:23:59;;;;;;;0.30;0.20;;;;;;;10.84;100.00;101162.72;5053317;28;20483;-51
2024/02/04 07:26:25;;;;;;;0.30;0.20;;;;;;;10.89;100.00;101162.63;5069654;28;20600;-51
2024/02/04 07:28:51;;;;;;;0.30;0.20;;;;;;;10.83;100.00;101165.41;5071180;28;21010;-52
2024/02/04 07:31:19;;;;;;;0.30;0.20;;;;;;;10.88;100.00;101153.78;5070410;28;20495;-51
2024/02/04 07:33:45;;;;;;;0.30;0.20;;;;;;;10.94;100.00;101164.28;5075001;28;20533;-51
2024/02/04 07:36:12;;;;;;;0.30;0.20;;;;;;;10.94;100.00;101164.28;5075200;28;20473;-51
2024/02/04 07:38:38;;;;;;;0.30;0.20;;;;;;;10.84;100.00;101161.84;5047997;28;20882;-51
2024/02/04 07:41:04;;;;;;;0.30;0.20;;;;;;;10.94;100.00;101168.75;5073416;28;20532;-51
2024/02/04 07:43:31;;;;;;;0.30;0.20;;;;;;;10.93;100.00;101167.88;5074983;28;20500;-51
2024/02/04 07:45:57;;;;;;;0.30;0.20;;;;;;;10.81;100.00;101183.13;5069787;28;20474;-51
2024/02/04 07:48:27;;;;;;;0.30;0.20;;;;;;;10.90;100.00;101167.91;5075084;28;20489;-51
2024/02/04 07:50:54;;;;;;;0.30;0.20;;;;;;;11.01;100.00;101166.88;5065358;28;20489;-52
2024/02/04 07:53:22;;;;;;;0.30;0.20;;;;;;;10.83;100.00;101171.59;5074910;28;20477;-51
2024/02/04 07:55:49;;;;;;;0.30;0.20;;;;;;;10.91;100.00;101182.97;5065427;28;20450;-50
2024/02/04 07:58:16;;;;;;;0.30;0.20;;;;;;;10.87;100.00;101183.06;5074915;28;20441;-51
2024/02/04 08:00:42;;;;;;;0.30;0.20;;;;;;;10.88;100.00;101182.16;5048499;28;20536;-51
2024/02/04 08:03:09;;;;;;;0.30;0.20;;;;;;;10.92;100.00;101189.16;5065817;28;20470;-52
2024/02/04 08:05:35;;;;;;;0.30;0.20;;;;;;;10.81;100.00;101185.78;5075041;28;20450;-51
2024/02/04 08:08:02;;;;;;;0.30;0.20;;;;;;;10.81;100.00;101176.03;5062079;28;20459;-51
2024/02/04 08:10:29;;;;;;;0.30;0.20;;;;;;;10.86;100.00;101175.97;5057484;28;20544;-51
2024/02/04 08:12:55;;;;;;;0.30;0.20;;;;;;;10.74;100.00;101178.81;5068261;28;20481;-51
2024/02/04 08:15:24;;;;;;;0.30;0.20;;;;;;;10.88;100.00;101174.16;5070727;28;20508;-51
2024/02/04 08:17:50;;;;;;;0.30;0.20;;;;;;;10.76;100.00;101167.25;5075553;28;20571;-51
2024/02/04 08:20:18;;;;;;;0.30;0.20;;;;;;;10.76;100.00;101177.91;5075869;28;20859;-52
2024/02/04 08:22:44;;;;;;;0.30;0.20;;;;;;;10.78;100.00;101176.09;5074225;28;20990;-52
2024/02/04 08:25:11;;;;;;;0.30;0.20;;;;;;;10.86;100.00;101166.22;5063677;28;20453;-52
2024/02/04 08:27:39;;;;;;;0.30;0.20;;;;;;;10.88;100.00;101164.41;5064583;28;20450;-49
2024/02/04 08:30:06;;;;;;;0.30;0.20;;;;;;;10.97;100.00;101158.06;5075071;28;20490;-51
2024/02/04 08:32:33;;;;;;;0.30;0.20;;;;;;;10.94;100.00;101160.75;5075031;28;20523;-52
2024/02/04 08:34:59;;;;;;;0.30;0.20;;;;;;;11.10;100.00;101172.03;5065952;28;20449;-52
2024/02/04 08:37:26;;;;;;;0.60;0.60;;;;;;;11.10;100.00;101182.66;5072173;28;20453;-51
2024/02/04 08:39:55;;;;;;;0.30;0.20;;;;;;;11.16;100.00;101188.78;5075179;28;20553;-52
2024/02/04 08:42:21;;;;;;;0.30;0.20;;;;;;;11.11;100.00;101187.13;5072658;28;20474;-51
2024/02/04 08:44:48;;;;;;;0.30;0.20;;;;;;;11.12;100.00;101173.78;5062278;28;20938;-50
2024/02/04 08:47:16;;;;;;;0.30;0.20;;;;;;;11.26;100.00;101179.75;5065407;28;20446;-52
2024/02/04 08:49:43;;;;;;;0.30;0.20;;;;;;;11.19;100.00;101183.41;5066617;28;20482;-52
2024/02/04 08:52:10;;;;;;;0.30;0.20;;;;;;;11.17;100.00;101182.56;5071903;28;20520;-46
2024/02/04 08:54:36;;;;;;;0.30;0.20;;;;;;;11.27;100.00;101191.28;5067509;28;20478;-47
2024/02/04 08:57:03;;;;;;;0.30;0.20;;;;;;;11.29;100.00;101189.47;5070545;28;20453;-47
2024/02/04 08:59:30;;;;;;;0.30;0.20;;;;;;;11.35;100.00;101177.81;5073432;28;20446;-47
2024/02/04 09:01:56;;;;;;;0.30;0.20;;;;;;;11.45;100.00;101172.31;5068981;28;20470;-47
2024/02/04 09:04:23;;;;;;;0.30;0.20;;;;;;;11.37;100.00;101168.91;5073308;28;20537;-56
2024/02/04 09:06:50;;;;;;;0.30;0.20;;;;;;;11.29;100.00;101160.19;5055377;28;20450;-49
2024/02/04 09:09:16;;;;;;;0.30;0.20;;;;;;;11.19;100.00;101156.78;5069905;28;20450;-48
2024/02/04 09:11:43;;;;;;;0.30;0.20;;;;;;;11.28;100.00;101155.78;5072868;28;20573;-48
2024/02/04 09:14:09;;;;;;;0.30;0.20;;;;;;;11.25;100.00;101155.81;5073063;28;20507;-48
2024/02/04 09:16:39;;;;;;;0.30;0.20;;;;;;;11.18;100.00;101159.47;5072793;28;20957;-49
2024/02/04 09:19:05;;;;;;;0.30;0.20;;;;;;;11.32;100.00;101161.91;5073071;28;20435;-48
2024/02/04 09:21:32;;;;;;;0.30;0.20;;;;;;;11.27;100.00;101167.31;5072596;28;20446;-47
2024/02/04 09:23:59;;;;;;;0.30;0.20;;;;;;;11.35;100.00;101162.72;5072036;28;20458;-47
2024/02/04 09:26:25;;;;;;;0.30;0.20;;;;;;;11.34;99.86;101160.97;5071359;28;20999;-47
2024/02/04 09:28:52;;;;;;;0.30;0.20;;;;;;;11.41;100.00;101159.97;5072845;28;20445;-47
2024/02/04 09:31:18;;;;;;;0.30;0.20;;;;;;;11.32;100.00;101148.59;5072612;28;20572;-48
2024/02/04 09:33:45;;;;;;;0.30;0.20;;;;;;;11.40;100.00;101152.00;5072531;28;20841;-46
2024/02/04 09:36:12;;;;;;;0.30;0.20;;;;;;;11.27;100.00;101162.00;5072411;28;20421;-47
2024/02/04 09:38:39;;;;;;;0.30;0.20;;;;;;;11.32;100.00;101161.91;5069135;28;20453;-47
2024/02/04 09:41:05;;;;;;;0.30;0.20;;;;;;;11.26;100.00;101165.56;5072475;28;20476;-47
2024/02/04 09:43:32;;;;;;;0.30;0.20;;;;;;;11.31;100.00;101166.34;5072384;28;20520;-47
2024/02/04 09:46:04;;;;;;;0.30;0.20;;;;;;;11.37;100.00;101155.59;5072438;28;20457;-47
2024/02/04 09:48:32;;;;;;;0.30;0.20;;;;;;;11.26;100.00;101149.59;5072321;28;20478;-49
2024/02/04 09:50:59;;;;;;;0.30;0.20;;;;;;;11.46;100.00;101151.88;5072169;28;20485;-47
2024/02/04 09:53:36;;;;;;;0.30;0.20;;;;;;;11.35;100.00;101144.09;5071124;28;20478;-48
2024/02/04 09:56:06;;;;;;;0.30;0.20;;;;;;;11.28;100.00;101147.78;5063067;28;20456;-48
2024/02/04 09:58:32;;;;;;;0.30;0.20;;;;;;;11.33;100.00;101153.91;5071981;28;20453;-48
2024/02/04 10:01:04;;;;;;;0.30;0.20;;;;;;;11.31;100.00;101144.19;5071975;28;20442;-47
2024/02/04 10:03:30;;;;;;;0.30;0.20;;;;;;;11.30;100.00;101145.09;5071617;28;20468;-48
2024/02/04 10:05:57;;;;;;;0.40;0.20;;;;;;;11.50;100.00;101153.56;5072159;28;20450;-47
2024/02/04 10:08:24;;;;;;;0.30;0.20;;;;;;;11.38;100.00;101154.72;5072038;28;20515;-47
2024/02/04 10:10:51;;;;;;;0.30;0.20;;;;;;;11.36;100.00;101148.50;5062837;28;20490;-48
2024/02/04 10:13:18;;;;;;;0.30;0.20;;;;;;;11.47;100.00;101161.63;5056427;28;20461;-48
2024/02/04 10:15:45;;;;;;;0.30;0.20;;;;;;;11.40;100.00;101179.50;5064049;28;20485;-48
2024/02/04 10:18:11;;;;;;;0.30;0.20;;;;;;;11.44;100.00;101177.66;5068298;28;21049;-48
2024/02/04 10:20:38;;;;;;;0.30;0.20;;;;;;;11.47;100.00;101164.28;5067206;28;20588;-47
2024/02/04 10:23:04;;;;;;;0.30;0.20;;;;;;;11.38;100.00;101162.69;5071669;28;20508;-47
2024/02/04 10:25:31;;;;;;;0.30;0.20;;;;;;;11.42;100.00;101175.03;5068407;28;20540;-48
2024/02/04 10:27:59;;;;;;;0.30;0.20;;;;;;;11.45;100.00;101182.09;5056051;28;20419;-47
2024/02/04 10:30:25;;;;;;;0.30;0.20;;;;;;;11.41;100.00;101183.94;5071458;28;20464;-47
2024/02/04 10:32:53;;;;;;;0.30;0.20;;;;;;;11.49;100.00;101186.44;5068208;28;20466;-47
2024/02/04 10:35:23;;;;;;;0.30;0.20;;;;;;;11.50;100.00;101181.09;5062592;28;20450;-47
2024/02/04 10:37:51;;;;;;;0.30;0.20;;;;;;;11.41;100.00;101183.94;5068303;28;20454;-48
2024/02/04 10:40:18;;;;;;;0.30;0.20;;;;;;;11.47;100.00;101174.94;5071831;28;20446;-48
2024/02/04 10:42:46;;;;;;;0.30;0.20;;;;;;;11.30;100.00;101166.38;5065314;28;20976;-48
2024/02/04 10:45:15;;;;;;;0.30;0.20;;;;;;;11.24;100.00;101167.38;5052768;28;20458;-48
2024/02/04 10:47:45;;;;;;;0.30;0.20;;;;;;;11.39;100.00;101155.59;5050188;28;20816;-49
2024/02/04 10:50:13;;;;;;;0.30;0.20;;;;;;;11.44;100.00;101154.59;5071105;28;20977;-49
2024/02/04 10:52:40;;;;;;;0.30;0.20;;;;;;;11.50;100.00;101157.13;5059750;28;20519;-48
2024/02/04 10:55:09;;;;;;;0.30;0.20;;;;;;;11.40;100.00;101154.69;5062714;28;20483;-49
2024/02/04 10:57:38;;;;;;;0.30;0.20;;;;;;;11.48;100.00;101153.59;5071385;28;20503;-51
2024/02/04 11:00:08;;;;;;;0.30;0.20;;;;;;;11.40;100.00;101150.22;5071122;28;20492;-48
2024/02/04 11:02:37;;;;;;;0.30;0.20;;;;;;;11.50;100.00;101142.94;5061773;28;20458;-48
2024/02/04 11:05:05;;;;;;;0.30;0.20;;;;;;;11.59;100.00;101142.75;5070786;28;21030;-48
2024/02/04 11:07:33;;;;;;;0.30;0.20;;;;;;;11.52;100.00;101139.34;5071458;28;20789;-49
2024/02/04 11:10:01;;;;;;;0.30;0.20;;;;;;;11.54;100.00;101121.56;5075375;28;20450;-49
2024/02/04 11:12:30;;;;;;;0.30;0.20;;;;;;;11.49;100.00;101133.19;5073317;28;20447;-49
2024/02/04 11:15:00;;;;;;;0.30;0.20;;;;;;;11.52;100.00;101128.72;5075243;28;20449;-49
2024/02/04 11:18:09;;;;;;;0.30;0.20;;;;;;;11.49;100.00;101118.09;5072596;28;20533;-49
2024/02/04 11:20:57;;;;;;;0.30;0.20;;;;;;;11.68;100.00;101101.78;5057105;28;20489;-46
2024/02/04 11:23:45;;;;;;;0.30;0.20;;;;;;;11.86;100.00;101093.44;5049711;28;20462;-48